Terminal Aerodrome Forecast
Issued by NWS Greer, SC

Home | Current Version | Previous Version | Text Only | Print | Product List | Glossary On
Versions: 1 2 3 4 5 6 7 8 9 10 11 12 13 14 15 16 17 18 19 20 21 22 23 24 25 26 27 28 29 30 31 32 33 34 35 36 37 38 39 40 41 42 43 44 45 46 47 48 49 50
047
FTUS42 KGSP 250847 AAB
TAFCLT
TAF AMD
KCLT 250847Z 2509/2606 23006KT P6SM FEW007 SCT020 BKN060
      TEMPO 2509/2512 BKN007
     FM251200 24007KT P6SM SCT035
     FM251700 24012G20KT P6SM SCT040 BKN070
     FM260000 25008KT P6SM SCT070=

USA.gov is the U.S. government's official web portal to all federal, state and local government web resources and services.